Time;durP1;ratioP1;P1;durP2;ratioP2;P2;SDS_P1;SDS_P2;PMS_P1;PMS_P2;Temp;Humidity;BMP_temperature;BMP_pressure;BME280_temperature;BME280_humidity;BME280_pressure;Samples;Min_cycle;Max_cycle;Signal;HPM_P1;HPM_P2
2022/02/20 00:01:17;;;;;;;3.60;1.55;;;2.60;58.40;;;;;;5025433;28;20526;-67
2022/02/20 00:03:44;;;;;;;3.67;2.20;;;2.60;58.90;;;;;;5028893;28;20226;-67
2022/02/20 00:06:12;;;;;;;4.63;2.08;;;2.50;59.10;;;;;;5023590;28;20195;-69
2022/02/20 00:08:42;;;;;;;3.10;1.75;;;2.50;58.90;;;;;;5028411;28;20199;-67
2022/02/20 00:11:09;;;;;;;3.70;2.10;;;2.50;59.30;;;;;;5024718;28;20276;-69
2022/02/20 00:13:36;;;;;;;4.88;1.60;;;2.50;59.20;;;;;;5026852;28;20215;-67
2022/02/20 00:16:04;;;;;;;3.90;1.70;;;2.50;59.60;;;;;;5028004;28;20229;-68
2022/02/20 00:18:37;;;;;;;3.90;1.67;;;2.50;59.80;;;;;;5028207;28;20226;-66
2022/02/20 00:21:09;;;;;;;3.15;1.15;;;2.50;59.90;;;;;;5026719;28;20187;-66
2022/02/20 00:23:41;;;;;;;3.33;1.67;;;2.40;60.10;;;;;;5028803;28;20250;-66
2022/02/20 00:26:08;;;;;;;3.75;1.73;;;2.50;60.70;;;;;;5028108;28;20194;-66
2022/02/20 00:28:35;;;;;;;5.50;1.98;;;2.60;60.20;;;;;;5028558;28;20210;-66
2022/02/20 00:31:03;;;;;;;2.97;1.33;;;2.70;60.00;;;;;;5026370;28;20245;-66
2022/02/20 00:33:33;;;;;;;3.45;1.35;;;2.80;60.10;;;;;;5029079;28;20257;-66
2022/02/20 00:36:03;;;;;;;2.00;1.10;;;2.80;60.00;;;;;;5027729;28;20187;-66
2022/02/20 00:38:30;;;;;;;2.70;1.45;;;2.90;60.00;;;;;;5028347;28;20233;-66
2022/02/20 00:40:58;;;;;;;4.63;1.45;;;3.00;59.80;;;;;;5027521;28;20205;-71
2022/02/20 00:43:29;;;;;;;2.53;1.30;;;3.10;59.60;;;;;;5026199;28;20215;-66
2022/02/20 00:45:57;;;;;;;2.30;1.30;;;3.20;59.20;;;;;;5028545;28;20248;-67
2022/02/20 00:48:25;;;;;;;3.47;1.55;;;3.30;59.00;;;;;;4946077;28;20922;-73
2022/02/20 00:50:54;;;;;;;2.50;1.30;;;3.40;58.50;;;;;;5000127;28;20282;-67
2022/02/20 00:53:21;;;;;;;5.05;1.88;;;3.50;58.30;;;;;;5009454;28;20282;-69
2022/02/20 00:55:49;;;;;;;3.80;1.48;;;3.60;58.10;;;;;;5007871;28;20187;-67
2022/02/20 00:58:18;;;;;;;2.60;1.10;;;3.70;57.60;;;;;;5009210;28;20184;-67
2022/02/20 01:00:48;;;;;;;4.18;1.10;;;3.80;57.60;;;;;;5008632;28;20319;-67
2022/02/20 01:03:17;;;;;;;3.20;1.60;;;3.90;57.50;;;;;;5020297;28;20218;-68
2022/02/20 01:05:46;;;;;;;3.15;1.10;;;4.00;57.10;;;;;;5032378;28;20198;-68
2022/02/20 01:08:15;;;;;;;3.50;1.40;;;4.10;56.50;;;;;;5021206;28;20192;-68
2022/02/20 01:10:42;;;;;;;5.20;1.40;;;4.20;56.60;;;;;;4992259;28;20654;-68
2022/02/20 01:13:09;;;;;;;3.65;1.30;;;4.20;56.10;;;;;;5021577;28;20237;-67
2022/02/20 01:15:38;;;;;;;7.93;1.65;;;4.30;56.10;;;;;;5033483;28;20681;-67
2022/02/20 01:18:05;;;;;;;4.38;1.38;;;4.30;55.90;;;;;;5023846;28;20562;-67
2022/02/20 01:20:33;;;;;;;4.22;1.50;;;4.40;55.70;;;;;;5014398;28;20200;-67
2022/02/20 01:23:00;;;;;;;3.13;1.55;;;4.40;56.00;;;;;;5020620;28;20207;-67
2022/02/20 01:25:28;;;;;;;3.88;1.48;;;4.60;56.10;;;;;;5034268;28;20564;-67
2022/02/20 01:27:58;;;;;;;4.95;1.40;;;4.60;55.90;;;;;;5027524;28;20188;-67
2022/02/20 01:30:25;;;;;;;2.75;1.33;;;4.70;55.80;;;;;;5008259;28;20320;-67
2022/02/20 01:32:52;;;;;;;6.32;1.63;;;4.80;55.50;;;;;;5018289;28;20282;-68
2022/02/20 01:35:20;;;;;;;3.30;1.60;;;4.90;55.00;;;;;;5033371;28;20551;-71
2022/02/20 01:37:47;;;;;;;3.33;1.15;;;5.00;54.70;;;;;;5028481;28;20191;-68
2022/02/20 01:40:14;;;;;;;4.32;1.15;;;5.10;54.30;;;;;;5012378;28;20196;-71
2022/02/20 01:42:43;;;;;;;2.88;1.05;;;5.30;53.80;;;;;;5015268;28;20337;-68
2022/02/20 01:45:13;;;;;;;3.22;1.45;;;5.40;53.10;;;;;;5012662;28;20250;-68
2022/02/20 01:47:40;;;;;;;3.17;1.05;;;5.50;53.00;;;;;;5013781;28;20535;-67
2022/02/20 01:50:08;;;;;;;3.80;1.13;;;5.60;52.10;;;;;;5012169;28;20188;-68
2022/02/20 01:52:36;;;;;;;6.20;1.20;;;5.70;52.20;;;;;;5017015;28;20198;-67
2022/02/20 01:55:08;;;;;;;3.70;1.42;;;5.70;51.60;;;;;;5034771;28;20681;-66
2022/02/20 01:57:38;;;;;;;4.95;1.30;;;5.70;51.10;;;;;;5032266;28;20549;-67
2022/02/20 02:00:09;;;;;;;5.65;1.00;;;5.80;50.80;;;;;;5014460;28;20654;-67
2022/02/20 02:02:37;;;;;;;4.15;1.40;;;5.90;50.40;;;;;;5015960;28;20195;-67
2022/02/20 02:05:05;;;;;;;3.42;1.27;;;5.90;50.10;;;;;;5034549;28;20195;-67
2022/02/20 02:07:32;;;;;;;3.90;1.05;;;6.00;49.70;;;;;;5032708;28;20281;-67
2022/02/20 02:10:00;;;;;;;3.15;1.33;;;6.10;50.00;;;;;;5014632;28;20202;-67
2022/02/20 02:12:27;;;;;;;2.75;1.00;;;6.20;49.60;;;;;;5014389;28;20214;-68
2022/02/20 02:14:56;;;;;;;4.53;1.23;;;6.10;48.70;;;;;;5014285;28;20196;-67
2022/02/20 02:17:25;;;;;;;2.70;0.90;;;6.20;48.40;;;;;;5014464;28;20196;-67
2022/02/20 02:19:52;;;;;;;3.38;1.00;;;6.10;47.70;;;;;;5033219;28;20277;-67
2022/02/20 02:22:21;;;;;;;2.33;1.40;;;6.20;47.90;;;;;;5032645;28;20290;-67
2022/02/20 02:24:49;;;;;;;3.58;1.27;;;6.10;47.10;;;;;;5025112;28;20310;-68
2022/02/20 02:27:17;;;;;;;2.63;1.15;;;6.20;47.40;;;;;;5023696;28;20246;-67
2022/02/20 02:29:46;;;;;;;2.90;1.40;;;6.20;47.20;;;;;;5014439;28;20191;-68
2022/02/20 02:32:14;;;;;;;2.95;0.93;;;6.20;46.80;;;;;;5022572;28;20265;-67
2022/02/20 02:34:42;;;;;;;9.38;1.25;;;6.20;46.20;;;;;;5029955;28;20184;-67
2022/02/20 02:37:10;;;;;;;3.58;1.17;;;6.10;45.60;;;;;;5033893;28;20203;-69
2022/02/20 02:39:40;;;;;;;2.78;0.90;;;6.10;45.80;;;;;;5027775;28;20242;-67
2022/02/20 02:42:11;;;;;;;4.20;1.17;;;6.20;45.70;;;;;;5013712;28;20231;-67
2022/02/20 02:44:45;;;;;;;2.45;1.23;;;6.10;45.50;;;;;;5015107;28;20254;-67
2022/02/20 02:47:13;;;;;;;1.90;1.00;;;6.10;46.00;;;;;;5013864;28;20222;-68
2022/02/20 02:49:40;;;;;;;3.33;1.45;;;6.00;45.90;;;;;;5020650;28;20219;-67
2022/02/20 02:52:08;;;;;;;2.85;1.17;;;6.10;46.00;;;;;;5033634;28;20191;-67
2022/02/20 02:54:37;;;;;;;4.60;1.20;;;6.10;46.40;;;;;;5024577;28;20195;-67
2022/02/20 02:57:06;;;;;;;3.58;1.15;;;6.00;46.80;;;;;;5025331;28;20191;-67
2022/02/20 02:59:33;;;;;;;1.95;1.00;;;6.10;47.30;;;;;;5025240;28;20191;-67
2022/02/20 03:02:03;;;;;;;2.08;0.95;;;6.10;47.60;;;;;;5013561;28;20188;-67
2022/02/20 03:04:31;;;;;;;2.90;1.50;;;6.00;47.80;;;;;;5019215;28;20305;-67
2022/02/20 03:06:58;;;;;;;3.17;0.90;;;6.00;48.00;;;;;;5022214;28;20236;-67
2022/02/20 03:09:26;;;;;;;4.93;1.10;;;5.90;48.40;;;;;;5018574;28;20274;-67
2022/02/20 03:11:53;;;;;;;7.10;1.45;;;5.90;48.50;;;;;;5033340;28;20282;-67
2022/02/20 03:14:23;;;;;;;3.58;1.00;;;5.90;48.80;;;;;;5028409;28;20212;-67
2022/02/20 03:16:50;;;;;;;1.88;0.93;;;5.80;48.80;;;;;;5021958;28;20187;-74
2022/02/20 03:19:17;;;;;;;4.82;1.10;;;5.80;48.60;;;;;;5029714;28;20180;-67
2022/02/20 03:21:46;;;;;;;2.30;1.08;;;5.90;48.80;;;;;;5012968;28;20713;-67
2022/02/20 03:24:13;;;;;;;2.60;1.08;;;5.80;48.80;;;;;;5014653;28;20223;-67
2022/02/20 03:26:43;;;;;;;2.05;1.05;;;5.70;49.80;;;;;;5024463;28;20650;-67
2022/02/20 03:29:19;;;;;;;3.55;1.35;;;5.70;50.20;;;;;;5014171;28;20662;-67
2022/02/20 03:31:48;;;;;;;2.38;0.80;;;5.60;50.70;;;;;;5032551;28;20298;-68
2022/02/20 03:34:15;;;;;;;2.83;0.98;;;5.70;51.00;;;;;;5031050;28;20195;-67
2022/02/20 03:36:47;;;;;;;2.22;1.13;;;5.70;51.40;;;;;;5019975;28;20191;-67
2022/02/20 03:39:14;;;;;;;2.78;1.00;;;5.70;52.10;;;;;;5031294;28;20772;-67
2022/02/20 03:41:41;;;;;;;2.13;0.88;;;5.60;52.90;;;;;;5012801;28;20820;-67
2022/02/20 03:44:08;;;;;;;3.45;1.40;;;5.60;53.80;;;;;;5012752;28;20224;-68
2022/02/20 03:46:41;;;;;;;2.40;1.15;;;5.50;54.00;;;;;;5018823;28;20660;-67
2022/02/20 03:49:09;;;;;;;2.75;1.00;;;5.50;54.00;;;;;;5032211;28;20205;-67
2022/02/20 03:51:36;;;;;;;2.50;1.00;;;5.50;54.10;;;;;;5012498;28;20191;-67
2022/02/20 03:54:04;;;;;;;2.60;1.10;;;5.50;53.80;;;;;;5012280;28;20210;-67
2022/02/20 03:56:31;;;;;;;2.78;1.30;;;5.60;53.90;;;;;;5024415;28;20321;-67
2022/02/20 03:58:58;;;;;;;4.63;1.45;;;5.60;53.90;;;;;;5012182;28;20545;-67
2022/02/20 04:01:27;;;;;;;2.83;1.10;;;5.60;54.00;;;;;;5026584;28;20190;-67
2022/02/20 04:03:56;;;;;;;2.85;1.23;;;5.50;53.70;;;;;;5031840;28;20210;-67
2022/02/20 04:06:25;;;;;;;8.65;1.80;;;5.50;53.70;;;;;;5019801;28;20195;-67
2022/02/20 04:08:55;;;;;;;2.15;1.15;;;5.50;53.80;;;;;;5032043;28;20654;-67
2022/02/20 04:11:22;;;;;;;2.85;1.15;;;5.50;53.90;;;;;;5017018;28;20266;-67
2022/02/20 04:13:49;;;;;;;4.75;1.30;;;5.60;53.30;;;;;;5012292;28;20242;-67
2022/02/20 04:16:18;;;;;;;3.08;1.08;;;5.60;53.00;;;;;;5022521;28;20211;-68
2022/02/20 04:18:46;;;;;;;2.88;1.25;;;5.60;53.10;;;;;;5012420;28;20202;-67
2022/02/20 04:21:17;;;;;;;3.45;1.38;;;5.60;53.30;;;;;;5024480;28;20241;-67
2022/02/20 04:23:45;;;;;;;4.22;1.20;;;5.70;53.00;;;;;;5032133;28;20215;-67
2022/02/20 04:26:15;;;;;;;4.75;1.33;;;5.80;53.00;;;;;;5021021;28;20219;-67
2022/02/20 04:28:43;;;;;;;2.58;1.00;;;5.80;52.90;;;;;;5032169;28;20641;-67
2022/02/20 04:31:11;;;;;;;3.58;1.20;;;5.70;52.80;;;;;;5020673;28;20199;-67
2022/02/20 04:33:41;;;;;;;2.92;1.52;;;5.80;52.80;;;;;;5012177;28;20199;-67
2022/02/20 04:36:10;;;;;;;2.80;1.20;;;5.90;52.70;;;;;;5021113;28;20702;-67
2022/02/20 04:38:42;;;;;;;3.45;1.10;;;5.90;52.60;;;;;;5014026;28;20184;-70
2022/02/20 04:41:11;;;;;;;2.78;1.40;;;5.90;52.40;;;;;;5012202;28;20214;-67
2022/02/20 04:43:38;;;;;;;3.05;1.20;;;5.90;52.40;;;;;;5013669;28;20195;-67
2022/02/20 04:46:10;;;;;;;2.30;0.90;;;5.90;52.40;;;;;;5031252;28;20282;-67
2022/02/20 04:48:37;;;;;;;3.67;1.10;;;6.00;52.20;;;;;;5012328;28;20188;-67
2022/02/20 04:51:04;;;;;;;2.45;0.95;;;6.00;51.90;;;;;;5012255;28;20606;-67
2022/02/20 04:53:33;;;;;;;5.07;1.42;;;5.90;51.70;;;;;;5026317;28;20198;-68
2022/02/20 04:56:02;;;;;;;2.85;1.20;;;6.00;51.60;;;;;;5031464;28;20198;-67
2022/02/20 04:58:30;;;;;;;2.08;1.17;;;5.90;51.50;;;;;;5031563;28;20281;-67
2022/02/20 05:00:58;;;;;;;2.28;1.10;;;6.00;51.60;;;;;;5030504;28;20187;-67
2022/02/20 05:03:28;;;;;;;2.85;1.50;;;6.00;51.50;;;;;;5028116;28;20643;-67
2022/02/20 05:05:55;;;;;;;3.25;1.30;;;6.00;51.50;;;;;;5011720;28;20737;-67
2022/02/20 05:08:23;;;;;;;3.60;1.13;;;6.00;51.40;;;;;;5013441;28;20195;-67
2022/02/20 05:10:50;;;;;;;2.00;1.00;;;6.10;51.20;;;;;;5031812;28;20197;-67
2022/02/20 05:13:17;;;;;;;2.00;1.10;;;6.00;51.20;;;;;;5028923;28;20577;-68
2022/02/20 05:15:47;;;;;;;2.67;0.93;;;6.10;51.10;;;;;;5012108;28;20195;-67
2022/02/20 05:18:15;;;;;;;3.20;1.10;;;6.10;51.20;;;;;;5012820;28;20235;-67
2022/02/20 05:20:43;;;;;;;2.78;1.35;;;6.10;51.20;;;;;;5031652;28;20203;-67
2022/02/20 05:23:10;;;;;;;3.28;1.40;;;6.20;51.30;;;;;;5030425;28;20203;-67
2022/02/20 05:25:38;;;;;;;2.40;1.20;;;6.20;51.10;;;;;;5011678;28;20216;-67
2022/02/20 05:28:05;;;;;;;2.40;1.05;;;6.10;50.50;;;;;;5012128;28;20232;-68
2022/02/20 05:30:33;;;;;;;1.90;1.20;;;6.10;50.80;;;;;;5031291;28;20187;-67
2022/02/20 05:33:01;;;;;;;2.22;1.00;;;6.10;50.70;;;;;;5031789;28;20191;-67
2022/02/20 05:35:33;;;;;;;2.30;1.00;;;6.10;50.70;;;;;;5012137;28;20198;-67
2022/02/20 05:38:00;;;;;;;2.30;1.10;;;6.10;50.70;;;;;;5011981;28;20268;-67
2022/02/20 05:40:33;;;;;;;2.30;1.10;;;6.20;50.70;;;;;;5019271;28;20274;-67
2022/02/20 05:43:02;;;;;;;2.20;1.00;;;6.20;50.60;;;;;;5012038;28;20663;-67
2022/02/20 05:45:29;;;;;;;3.63;1.20;;;6.20;50.40;;;;;;5029509;28;20206;-67
2022/02/20 05:47:56;;;;;;;2.80;1.30;;;6.20;50.30;;;;;;5031617;28;20203;-67
2022/02/20 05:50:25;;;;;;;4.00;1.33;;;6.20;50.40;;;;;;5026158;28;20222;-67
2022/02/20 05:52:55;;;;;;;2.55;1.23;;;6.30;50.40;;;;;;5035137;28;20274;-72
2022/02/20 05:55:24;;;;;;;3.67;1.10;;;6.20;50.40;;;;;;5018789;28;20200;-67
2022/02/20 05:57:53;;;;;;;2.47;1.27;;;6.20;50.30;;;;;;5015423;28;20196;-67
2022/02/20 06:00:24;;;;;;;2.33;1.10;;;6.20;50.40;;;;;;5016213;28;20192;-68
2022/02/20 06:02:51;;;;;;;2.90;1.20;;;6.30;50.40;;;;;;5015462;28;20668;-67
2022/02/20 06:05:19;;;;;;;5.30;1.40;;;6.30;50.40;;;;;;5029130;28;20642;-68
2022/02/20 06:07:48;;;;;;;1.98;0.98;;;6.20;50.30;;;;;;5035037;28;20245;-67
2022/02/20 06:10:17;;;;;;;3.85;1.52;;;6.20;50.20;;;;;;5021000;28;20195;-67
2022/02/20 06:12:47;;;;;;;6.18;1.40;;;6.30;50.40;;;;;;5014927;28;20231;-67
2022/02/20 06:15:16;;;;;;;2.72;0.95;;;6.30;50.50;;;;;;5027986;28;20553;-67
2022/02/20 06:17:43;;;;;;;3.05;1.02;;;6.30;50.50;;;;;;5035157;28;20650;-67
2022/02/20 06:20:11;;;;;;;3.20;1.17;;;6.30;50.40;;;;;;5017506;28;20223;-67
2022/02/20 06:22:39;;;;;;;2.22;1.10;;;6.30;50.50;;;;;;5015178;28;20195;-67
2022/02/20 06:25:08;;;;;;;5.32;1.50;;;6.30;50.80;;;;;;5016263;28;20243;-67
2022/02/20 06:27:36;;;;;;;3.65;1.52;;;6.30;50.80;;;;;;5014819;28;20526;-67
2022/02/20 06:30:06;;;;;;;1.92;1.20;;;6.30;50.70;;;;;;5026699;28;20191;-74
2022/02/20 06:32:33;;;;;;;2.05;1.00;;;6.40;50.90;;;;;;5014609;28;20219;-67
2022/02/20 06:34:59;;;;;;;2.83;1.38;;;6.40;50.80;;;;;;5008778;28;20246;-70
2022/02/20 06:37:26;;;;;;;1.80;0.90;;;6.40;50.90;;;;;;5051033;28;20191;-67
2022/02/20 06:39:53;;;;;;;1.95;1.00;;;6.40;51.00;;;;;;5054712;28;20198;-67
2022/02/20 06:42:22;;;;;;;2.60;1.15;;;6.50;51.70;;;;;;5054168;28;20222;-67
2022/02/20 06:44:48;;;;;;;2.80;1.33;;;6.50;51.10;;;;;;5054463;28;20276;-70
2022/02/20 06:47:16;;;;;;;2.75;1.00;;;6.50;51.40;;;;;;5040785;28;20678;-67
2022/02/20 06:49:43;;;;;;;4.65;0.90;;;6.50;51.40;;;;;;5053487;28;20743;-67
2022/02/20 06:52:24;;;;;;;2.65;1.35;;;6.40;51.60;;;;;;5053318;28;20518;-67
2022/02/20 06:54:51;;;;;;;2.75;1.00;;;6.50;52.00;;;;;;5052365;28;20187;-68
2022/02/20 06:57:18;;;;;;;2.60;0.98;;;6.40;52.20;;;;;;5054326;28;20244;-67
2022/02/20 06:59:51;;;;;;;3.78;1.38;;;6.40;52.40;;;;;;5019536;28;20277;-68
2022/02/20 07:02:23;;;;;;;2.20;1.13;;;6.50;52.60;;;;;;5022214;28;20674;-67
2022/02/20 07:04:50;;;;;;;2.15;1.15;;;6.50;52.70;;;;;;5013724;28;20219;-68
2022/02/20 07:07:17;;;;;;;3.08;1.30;;;6.60;52.80;;;;;;5023197;28;20195;-67
2022/02/20 07:09:44;;;;;;;1.90;0.98;;;6.50;52.70;;;;;;5033712;28;20719;-67
2022/02/20 07:12:11;;;;;;;4.07;1.48;;;6.60;52.70;;;;;;5026098;28;20187;-68
2022/02/20 07:14:39;;;;;;;2.20;1.17;;;6.60;52.60;;;;;;5021398;28;20626;-68
2022/02/20 07:17:07;;;;;;;2.42;1.20;;;6.70;52.60;;;;;;5027563;28;20195;-67
2022/02/20 07:19:34;;;;;;;2.35;1.10;;;6.70;52.40;;;;;;5031913;28;20203;-67
2022/02/20 07:22:01;;;;;;;3.45;1.10;;;6.70;51.90;;;;;;5031224;28;20585;-67
2022/02/20 07:24:28;;;;;;;3.80;1.00;;;6.80;52.20;;;;;;5031316;28;20195;-67
2022/02/20 07:26:55;;;;;;;2.50;1.05;;;6.80;52.10;;;;;;5030570;28;20187;-67
2022/02/20 07:29:24;;;;;;;5.78;1.10;;;6.80;52.20;;;;;;5031578;28;20202;-67
2022/02/20 07:31:51;;;;;;;3.75;1.35;;;6.90;52.40;;;;;;5030630;28;20183;-68
2022/02/20 07:34:19;;;;;;;3.28;1.17;;;6.90;52.20;;;;;;5027510;28;20195;-67
2022/02/20 07:36:46;;;;;;;1.77;0.80;;;7.00;52.00;;;;;;5029061;28;20592;-70
2022/02/20 07:39:13;;;;;;;2.35;1.20;;;7.10;52.10;;;;;;5030210;28;20202;-67
2022/02/20 07:41:40;;;;;;;2.28;1.15;;;7.10;51.50;;;;;;5030334;28;20569;-68
2022/02/20 07:44:07;;;;;;;3.05;1.38;;;7.20;51.50;;;;;;5031399;28;20195;-67
2022/02/20 07:46:35;;;;;;;2.42;1.08;;;7.30;51.30;;;;;;5030916;28;20705;-68
2022/02/20 07:49:02;;;;;;;3.30;1.23;;;7.20;50.80;;;;;;5031527;28;20199;-67
2022/02/20 07:51:30;;;;;;;1.73;1.10;;;7.30;50.80;;;;;;5030033;28;20198;-68
2022/02/20 07:53:57;;;;;;;4.72;1.20;;;7.30;50.70;;;;;;5030988;28;20294;-68
2022/02/20 07:56:24;;;;;;;2.25;1.15;;;7.30;50.70;;;;;;5028259;28;20201;-68
2022/02/20 07:58:51;;;;;;;6.22;0.90;;;7.40;50.40;;;;;;5028709;28;20195;-68
2022/02/20 08:01:19;;;;;;;2.30;1.13;;;7.50;50.20;;;;;;5029032;28;20195;-71
2022/02/20 08:03:46;;;;;;;3.80;1.00;;;7.50;50.10;;;;;;5030120;28;20273;-67
2022/02/20 08:06:13;;;;;;;2.78;1.40;;;7.60;50.10;;;;;;5025339;28;20296;-67
2022/02/20 08:08:41;;;;;;;4.85;1.27;;;7.80;50.00;;;;;;5030889;28;20191;-68
2022/02/20 08:11:09;;;;;;;3.90;1.20;;;7.90;49.70;;;;;;5027539;28;20198;-68
2022/02/20 08:13:36;;;;;;;2.03;1.10;;;8.20;49.70;;;;;;5030391;28;20235;-68
2022/02/20 08:16:03;;;;;;;2.40;1.30;;;8.50;49.30;;;;;;5029017;28;20256;-67
2022/02/20 08:18:30;;;;;;;2.60;1.42;;;8.80;49.00;;;;;;5030602;28;20191;-68
2022/02/20 08:20:57;;;;;;;2.60;0.90;;;9.30;48.00;;;;;;5025595;28;20202;-68
2022/02/20 08:23:24;;;;;;;2.33;1.10;;;9.60;46.70;;;;;;5029788;28;20198;-68
2022/02/20 08:25:53;;;;;;;3.22;1.30;;;9.80;46.50;;;;;;5031161;28;20337;-67
2022/02/20 08:28:20;;;;;;;2.20;1.13;;;9.80;45.90;;;;;;5029521;28;20213;-68
2022/02/20 08:30:47;;;;;;;4.38;2.20;;;9.70;45.50;;;;;;5031004;28;20274;-68
2022/02/20 08:33:14;;;;;;;3.38;1.15;;;9.70;46.10;;;;;;5029467;28;20290;-68
2022/02/20 08:35:47;;;;;;;1.65;0.95;;;9.60;45.60;;;;;;5029690;28;20195;-67
2022/02/20 08:38:16;;;;;;;2.15;1.05;;;9.50;45.80;;;;;;5029430;28;20199;-68
2022/02/20 08:40:43;;;;;;;2.58;1.05;;;9.30;46.00;;;;;;5028322;28;20653;-68
2022/02/20 08:43:11;;;;;;;2.90;1.60;;;9.20;46.60;;;;;;5029992;28;20198;-69
2022/02/20 08:45:38;;;;;;;2.72;1.20;;;9.10;46.50;;;;;;5030452;28;20654;-68
2022/02/20 08:48:07;;;;;;;2.13;1.08;;;9.20;46.90;;;;;;5030127;28;20195;-68
2022/02/20 08:50:35;;;;;;;1.88;1.08;;;9.10;47.00;;;;;;5030657;28;20209;-68
2022/02/20 08:53:02;;;;;;;3.20;1.10;;;9.10;47.00;;;;;;5023398;28;20225;-69
2022/02/20 08:55:29;;;;;;;3.42;1.40;;;9.10;47.10;;;;;;5027286;28;20538;-68
2022/02/20 08:57:56;;;;;;;2.78;1.88;;;9.00;46.90;;;;;;5030313;28;20544;-68
2022/02/20 09:00:24;;;;;;;2.67;1.17;;;9.00;46.80;;;;;;5029837;28;20665;-68
2022/02/20 09:02:51;;;;;;;2.33;1.05;;;9.00;47.40;;;;;;5030119;28;20665;-68
2022/02/20 09:05:21;;;;;;;2.22;1.23;;;8.90;46.30;;;;;;5029220;28;20221;-67
2022/02/20 09:07:48;;;;;;;3.40;1.58;;;8.90;46.20;;;;;;5029005;28;20198;-68
2022/02/20 09:10:15;;;;;;;4.28;2.95;;;9.00;46.60;;;;;;5021900;28;20241;-67
2022/02/20 09:12:43;;;;;;;3.55;1.05;;;9.00;47.00;;;;;;5029719;28;20249;-68
2022/02/20 09:15:11;;;;;;;3.00;1.30;;;9.10;46.50;;;;;;5030270;28;20218;-67
2022/02/20 09:17:40;;;;;;;2.30;1.20;;;9.40;46.30;;;;;;5030255;28;20198;-68
2022/02/20 09:20:09;;;;;;;3.05;1.45;;;9.70;45.20;;;;;;5027596;28;20225;-68
2022/02/20 09:22:38;;;;;;;9.05;3.70;;;10.10;44.50;;;;;;5025022;28;20650;-69
2022/02/20 09:25:06;;;;;;;8.52;4.43;;;10.50;44.50;;;;;;5030408;28;20195;-67
2022/02/20 09:27:39;;;;;;;3.30;2.10;;;11.10;43.70;;;;;;5033425;28;20233;-68
2022/02/20 09:30:07;;;;;;;12.55;7.18;;;11.40;41.70;;;;;;5034445;28;20282;-68
2022/02/20 09:32:34;;;;;;;5.90;3.80;;;11.60;41.40;;;;;;5030026;28;20241;-67
2022/02/20 09:35:02;;;;;;;4.40;2.00;;;11.90;41.20;;;;;;5034434;28;20273;-67
2022/02/20 09:37:29;;;;;;;2.28;1.20;;;12.10;40.30;;;;;;5033052;28;20191;-68
2022/02/20 09:39:56;;;;;;;3.33;1.30;;;12.40;39.90;;;;;;5034222;28;20191;-68
2022/02/20 09:42:24;;;;;;;3.90;1.25;;;12.70;39.40;;;;;;5033144;28;20191;-68
2022/02/20 09:44:51;;;;;;;2.95;1.63;;;13.00;38.90;;;;;;5034055;28;20198;-69
2022/02/20 09:47:18;;;;;;;5.25;1.15;;;13.40;38.40;;;;;;5028655;28;20211;-68
2022/02/20 09:49:46;;;;;;;4.03;2.50;;;13.80;37.60;;;;;;5033244;28;20191;-68
2022/02/20 09:52:15;;;;;;;3.53;1.40;;;14.20;37.30;;;;;;5033171;28;20438;-67
2022/02/20 09:54:42;;;;;;;2.17;1.30;;;14.40;37.00;;;;;;5033196;28;20445;-68
2022/02/20 09:57:09;;;;;;;4.00;2.60;;;14.70;35.40;;;;;;5032773;28;20443;-68
2022/02/20 09:59:36;;;;;;;2.97;1.77;;;14.90;36.50;;;;;;5033898;28;20441;-68
2022/02/20 10:02:08;;;;;;;1.90;0.97;;;16.50;36.10;;;;;;5033080;28;20489;-68
2022/02/20 10:04:40;;;;;;;14.07;12.33;;;18.00;33.20;;;;;;5029342;28;20449;-68
2022/02/20 10:07:08;;;;;;;4.80;1.00;;;20.20;31.90;;;;;;5029456;28;20547;-68
2022/02/20 10:09:39;;;;;;;1.97;0.70;;;22.90;30.30;;;;;;5033710;28;20508;-69
2022/02/20 10:12:20;;;;;;;3.23;1.00;;;27.00;25.90;;;;;;5029544;28;20433;-69
2022/02/20 10:14:48;;;;;;;1.87;0.70;;;29.40;22.90;;;;;;5022253;28;20794;-71
2022/02/20 10:17:17;;;;;;;6.90;5.27;;;31.80;19.10;;;;;;5020124;28;20434;-68
2022/02/20 10:19:55;;;;;;;3.20;0.80;;;33.10;17.10;;;;;;5028507;28;21737;-69
2022/02/20 10:22:34;;;;;;;2.80;1.63;;;34.80;16.00;;;;;;4966856;28;20719;-75
2022/02/20 10:25:10;;;;;;;3.47;2.20;;;35.80;14.50;;;;;;4958103;28;21028;-76
2022/02/20 10:27:50;;;;;;;2.33;0.70;;;36.70;13.70;;;;;;4962484;28;21029;-74
2022/02/20 10:30:23;;;;;;;1.80;0.70;;;37.90;12.20;;;;;;4980503;28;20996;-74
2022/02/20 10:33:06;;;;;;;2.63;1.10;;;38.50;11.30;;;;;;4987949;28;20438;-73
2022/02/20 10:35:34;;;;;;;4.23;1.10;;;38.70;10.30;;;;;;5026424;28;20441;-68
2022/02/20 10:38:08;;;;;;;10.80;7.10;;;38.10;10.00;;;;;;5009367;28;20500;-67
2022/02/20 10:40:39;;;;;;;4.07;2.40;;;37.00;10.20;;;;;;5026734;28;20446;-67
2022/02/20 10:43:08;;;;;;;2.63;1.30;;;35.20;10.60;;;;;;5018177;28;20477;-67
2022/02/20 10:45:37;;;;;;;2.10;0.73;;;33.40;11.90;;;;;;5029143;28;20850;-70
2022/02/20 10:48:14;;;;;;;1.97;0.90;;;31.70;12.20;;;;;;5020473;28;20490;-69
2022/02/20 10:50:42;;;;;;;2.00;0.80;;;29.70;13.00;;;;;;5025070;28;20928;-67
2022/02/20 10:53:19;;;;;;;3.27;1.70;;;28.20;14.50;;;;;;5030561;28;21344;-66
2022/02/20 10:55:52;;;;;;;1.93;0.80;;;27.30;15.10;;;;;;5026827;28;20483;-67
2022/02/20 10:58:20;;;;;;;1.70;0.60;;;26.90;15.90;;;;;;5030345;28;20473;-67
2022/02/20 11:00:52;;;;;;;1.83;0.73;;;28.30;17.10;;;;;;5031887;28;20442;-67
2022/02/20 11:03:22;;;;;;;3.20;1.97;;;30.80;16.50;;;;;;5024024;28;20438;-68
2022/02/20 11:05:49;;;;;;;3.00;1.90;;;33.20;14.90;;;;;;5023160;28;20484;-72
2022/02/20 11:08:19;;;;;;;2.13;0.93;;;34.80;13.00;;;;;;5031365;28;20437;-67
2022/02/20 11:10:49;;;;;;;2.77;0.97;;;34.80;12.00;;;;;;5031856;28;20442;-67
2022/02/20 11:13:18;;;;;;;5.30;0.70;;;34.20;11.80;;;;;;5027600;28;20463;-67
2022/02/20 11:15:48;;;;;;;3.13;0.93;;;34.30;11.60;;;;;;5030017;28;20453;-67
2022/02/20 11:18:21;;;;;;;3.93;1.40;;;34.50;12.30;;;;;;5031415;28;20473;-67
2022/02/20 11:20:50;;;;;;;1.87;0.70;;;34.80;11.40;;;;;;5032364;28;20939;-67
2022/02/20 11:23:24;;;;;;;3.33;2.33;;;34.50;11.10;;;;;;5031126;28;20442;-67
2022/02/20 11:25:59;;;;;;;4.53;3.10;;;33.90;11.20;;;;;;5027039;28;20433;-69
2022/02/20 11:28:26;;;;;;;2.73;2.13;;;33.10;11.80;;;;;;5031181;28;20805;-67
2022/02/20 11:30:54;;;;;;;3.90;2.30;;;31.60;11.50;;;;;;5018540;28;21208;-72
2022/02/20 11:33:22;;;;;;;2.87;0.70;;;30.60;13.50;;;;;;5030171;28;20993;-67
2022/02/20 11:35:52;;;;;;;2.00;0.90;;;31.00;13.70;;;;;;5031721;28;20967;-67
2022/02/20 11:38:21;;;;;;;7.60;6.80;;;31.80;13.90;;;;;;5030503;28;20448;-68
2022/02/20 11:41:02;;;;;;;1.70;0.90;;;32.70;13.10;;;;;;5027818;28;20509;-69
2022/02/20 11:43:41;;;;;;;1.97;0.63;;;31.70;12.00;;;;;;5031484;28;20440;-70
2022/02/20 11:46:11;;;;;;;2.20;1.00;;;30.80;11.90;;;;;;5025027;28;21047;-69
2022/02/20 11:48:58;;;;;;;2.10;1.10;;;29.20;13.10;;;;;;5030479;28;20438;-69
2022/02/20 11:51:31;;;;;;;1.80;0.70;;;29.20;14.50;;;;;;5017071;28;20523;-78
2022/02/20 11:54:15;;;;;;;2.80;1.67;;;29.90;14.00;;;;;;4952656;28;21017;-75
2022/02/20 11:57:26;;;;;;;2.13;1.13;;;31.00;15.00;;;;;;4956992;28;20889;-77
2022/02/20 12:00:17;;;;;;;3.13;1.10;;;33.50;13.30;;;;;;4944282;28;21210;-75
2022/02/20 12:03:17;;;;;;;2.70;1.53;;;35.30;12.30;;;;;;4937063;28;20994;-78
2022/02/20 12:06:20;;;;;;;3.07;1.17;;;37.00;11.00;;;;;;4934525;28;20836;-76
2022/02/20 12:08:57;;;;;;;1.87;0.70;;;38.00;10.70;;;;;;4943577;28;21030;-75
2022/02/20 12:11:27;;;;;;;1.93;1.03;;;39.10;9.50;;;;;;4941281;28;21070;-69
2022/02/20 12:13:59;;;;;;;2.00;0.70;;;39.10;8.80;;;;;;4943541;28;21282;-74
2022/02/20 12:16:33;;;;;;;2.60;1.27;;;38.90;9.10;;;;;;4950126;28;20920;-76
2022/02/20 12:19:13;;;;;;;2.37;0.80;;;38.50;9.20;;;;;;4938794;28;20797;-76
2022/02/20 12:21:58;;;;;;;2.77;1.00;;;37.50;8.30;;;;;;4932938;28;21025;-76
2022/02/20 12:24:31;;;;;;;7.20;4.10;;;36.80;9.30;;;;;;4907698;28;20883;-78
2022/02/20 12:26:59;;;;;;;2.70;1.70;;;37.00;9.40;;;;;;4938066;28;20932;-67
2022/02/20 12:29:37;;;;;;;2.63;0.90;;;36.90;9.20;;;;;;5012645;28;20937;-67
2022/02/20 12:32:11;;;;;;;1.80;0.70;;;36.80;9.10;;;;;;5012985;28;20849;-67
2022/02/20 12:35:14;;;;;;;1.80;0.87;;;36.40;9.30;;;;;;5013002;28;20419;-67
2022/02/20 12:37:44;;;;;;;1.53;0.60;;;36.10;9.50;;;;;;5003156;28;20544;-67
2022/02/20 12:40:17;;;;;;;1.50;0.50;;;35.60;9.40;;;;;;5013120;28;20443;-67
2022/02/20 12:42:55;;;;;;;1.60;0.60;;;35.30;9.40;;;;;;5013110;28;20447;-67
2022/02/20 12:45:25;;;;;;;3.30;0.80;;;34.90;9.70;;;;;;5012798;28;20515;-67
2022/02/20 12:47:54;;;;;;;2.57;0.60;;;34.70;10.10;;;;;;5012498;28;20443;-67
2022/02/20 12:50:24;;;;;;;2.83;0.70;;;34.90;10.40;;;;;;5012687;28;20490;-67
2022/02/20 12:52:52;;;;;;;1.80;0.70;;;35.20;10.40;;;;;;5012861;28;20442;-68
2022/02/20 12:55:22;;;;;;;1.80;0.70;;;35.70;9.90;;;;;;5012789;28;20439;-67
2022/02/20 12:57:51;;;;;;;1.80;0.67;;;36.40;9.70;;;;;;5012005;28;20937;-67
2022/02/20 13:00:21;;;;;;;1.70;0.60;;;36.70;9.50;;;;;;5012315;28;20446;-68
2022/02/20 13:02:51;;;;;;;2.20;0.80;;;36.60;8.90;;;;;;5012830;28;20446;-67
2022/02/20 13:05:21;;;;;;;1.57;0.60;;;36.20;9.10;;;;;;5012799;28;20442;-67
2022/02/20 13:07:54;;;;;;;2.03;0.60;;;35.20;8.70;;;;;;5012753;28;20438;-68